sensor_id;sensor_type;location;lat;lon;timestamp;P1;durP1;ratioP1;P2;durP2;ratioP2
73650;SDS011;61944;52.538;6.108;2024-02-26T05:47:26;40.05;;;16.90;;
73650;SDS011;61944;52.538;6.108;2024-02-26T05:49:51;35.28;;;16.27;;
73650;SDS011;61944;52.538;6.108;2024-02-26T05:52:17;34.65;;;16.70;;
73650;SDS011;61944;52.538;6.108;2024-02-26T05:54:42;33.58;;;15.88;;
73650;SDS011;61944;52.538;6.108;2024-02-26T05:57:07;38.03;;;18.20;;
73650;SDS011;61944;52.538;6.108;2024-02-26T05:59:32;33.45;;;16.38;;
73650;SDS011;61944;52.538;6.108;2024-02-26T06:01:58;37.55;;;17.92;;
73650;SDS011;61944;52.538;6.108;2024-02-26T06:04:24;32.70;;;16.00;;
73650;SDS011;61944;52.538;6.108;2024-02-26T06:06:49;33.42;;;16.13;;
73650;SDS011;61944;52.538;6.108;2024-02-26T06:09:14;35.88;;;16.35;;
73650;SDS011;61944;52.538;6.108;2024-02-26T06:11:40;35.95;;;17.27;;
73650;SDS011;61944;52.538;6.108;2024-02-26T06:14:05;34.15;;;16.90;;
73650;SDS011;61944;52.538;6.108;2024-02-26T06:16:30;34.45;;;15.77;;
73650;SDS011;61944;52.538;6.108;2024-02-26T06:18:56;37.63;;;16.30;;
73650;SDS011;61944;52.538;6.108;2024-02-26T06:21:21;34.63;;;17.05;;
73650;SDS011;61944;52.538;6.108;2024-02-26T06:23:47;30.02;;;14.25;;
73650;SDS011;61944;52.538;6.108;2024-02-26T06:26:12;31.55;;;15.45;;
73650;SDS011;61944;52.538;6.108;2024-02-26T06:28:38;27.65;;;14.88;;
73650;SDS011;61944;52.538;6.108;2024-02-26T06:31:05;29.88;;;13.48;;
73650;SDS011;61944;52.538;6.108;2024-02-26T06:33:31;30.55;;;14.27;;
73650;SDS011;61944;52.538;6.108;2024-02-26T06:35:56;27.35;;;13.52;;
73650;SDS011;61944;52.538;6.108;2024-02-26T06:38:22;25.13;;;13.02;;
73650;SDS011;61944;52.538;6.108;2024-02-26T06:40:47;21.83;;;12.82;;
73650;SDS011;61944;52.538;6.108;2024-02-26T06:43:13;24.55;;;11.80;;
73650;SDS011;61944;52.538;6.108;2024-02-26T06:45:38;23.63;;;12.02;;
73650;SDS011;61944;52.538;6.108;2024-02-26T06:48:03;21.23;;;11.10;;
73650;SDS011;61944;52.538;6.108;2024-02-26T06:50:29;23.85;;;11.57;;
73650;SDS011;61944;52.538;6.108;2024-02-26T06:52:54;23.38;;;11.45;;
73650;SDS011;61944;52.538;6.108;2024-02-26T06:55:20;21.55;;;10.52;;
73650;SDS011;61944;52.538;6.108;2024-02-26T06:57:45;17.13;;;9.60;;
73650;SDS011;61944;52.538;6.108;2024-02-26T07:00:10;15.48;;;8.95;;
73650;SDS011;61944;52.538;6.108;2024-02-26T07:02:41;15.45;;;9.07;;
73650;SDS011;61944;52.538;6.108;2024-02-26T07:05:07;16.80;;;9.75;;
73650;SDS011;61944;52.538;6.108;2024-02-26T07:07:32;21.15;;;9.70;;
73650;SDS011;61944;52.538;6.108;2024-02-26T07:09:58;12.70;;;7.63;;
73650;SDS011;61944;52.538;6.108;2024-02-26T07:12:23;18.38;;;9.07;;
73650;SDS011;61944;52.538;6.108;2024-02-26T07:14:49;18.38;;;8.93;;
73650;SDS011;61944;52.538;6.108;2024-02-26T07:17:15;14.70;;;7.78;;
73650;SDS011;61944;52.538;6.108;2024-02-26T07:19:41;15.48;;;7.88;;
73650;SDS011;61944;52.538;6.108;2024-02-26T07:22:07;16.83;;;9.68;;
73650;SDS011;61944;52.538;6.108;2024-02-26T07:24:32;15.88;;;7.53;;
73650;SDS011;61944;52.538;6.108;2024-02-26T07:27:00;14.05;;;7.85;;
73650;SDS011;61944;52.538;6.108;2024-02-26T07:29:25;15.32;;;8.07;;
73650;SDS011;61944;52.538;6.108;2024-02-26T07:31:51;14.35;;;7.55;;
73650;SDS011;61944;52.538;6.108;2024-02-26T07:34:16;14.23;;;7.72;;
73650;SDS011;61944;52.538;6.108;2024-02-26T07:36:42;9.85;;;7.50;;
73650;SDS011;61944;52.538;6.108;2024-02-26T07:39:07;11.82;;;7.72;;
73650;SDS011;61944;52.538;6.108;2024-02-26T07:41:32;13.70;;;7.43;;
73650;SDS011;61944;52.538;6.108;2024-02-26T07:43:58;12.18;;;7.45;;
73650;SDS011;61944;52.538;6.108;2024-02-26T07:46:23;14.43;;;7.35;;
73650;SDS011;61944;52.538;6.108;2024-02-26T07:48:48;14.23;;;9.13;;
73650;SDS011;61944;52.538;6.108;2024-02-26T07:51:14;17.98;;;8.18;;
73650;SDS011;61944;52.538;6.108;2024-02-26T07:53:40;12.32;;;7.28;;
73650;SDS011;61944;52.538;6.108;2024-02-26T07:56:05;14.05;;;7.28;;
73650;SDS011;61944;52.538;6.108;2024-02-26T07:58:32;11.93;;;6.90;;
73650;SDS011;61944;52.538;6.108;2024-02-26T08:00:58;15.32;;;8.15;;
73650;SDS011;61944;52.538;6.108;2024-02-26T08:03:23;13.65;;;7.50;;
73650;SDS011;61944;52.538;6.108;2024-02-26T08:05:50;14.63;;;7.50;;
73650;SDS011;61944;52.538;6.108;2024-02-26T08:08:16;10.45;;;6.18;;
73650;SDS011;61944;52.538;6.108;2024-02-26T08:10:41;11.93;;;7.43;;
73650;SDS011;61944;52.538;6.108;2024-02-26T08:13:07;13.45;;;6.65;;
73650;SDS011;61944;52.538;6.108;2024-02-26T08:15:32;9.32;;;6.25;;
73650;SDS011;61944;52.538;6.108;2024-02-26T08:18:02;11.93;;;5.75;;
73650;SDS011;61944;52.538;6.108;2024-02-26T08:20:28;11.35;;;6.40;;
73650;SDS011;61944;52.538;6.108;2024-02-26T08:22:54;11.68;;;7.13;;
73650;SDS011;61944;52.538;6.108;2024-02-26T08:25:20;12.70;;;6.65;;
73650;SDS011;61944;52.538;6.108;2024-02-26T08:27:45;12.43;;;6.32;;
73650;SDS011;61944;52.538;6.108;2024-02-26T08:30:12;10.77;;;5.50;;
73650;SDS011;61944;52.538;6.108;2024-02-26T08:32:41;11.27;;;6.07;;
73650;SDS011;61944;52.538;6.108;2024-02-26T08:35:07;14.35;;;7.65;;
73650;SDS011;61944;52.538;6.108;2024-02-26T08:37:32;10.23;;;5.68;;
73650;SDS011;61944;52.538;6.108;2024-02-26T08:39:58;8.90;;;5.53;;
73650;SDS011;61944;52.538;6.108;2024-02-26T08:42:23;11.27;;;6.28;;
73650;SDS011;61944;52.538;6.108;2024-02-26T08:44:49;8.80;;;6.18;;
73650;SDS011;61944;52.538;6.108;2024-02-26T08:47:14;10.48;;;5.20;;
73650;SDS011;61944;52.538;6.108;2024-02-26T08:49:44;10.20;;;5.57;;
73650;SDS011;61944;52.538;6.108;2024-02-26T08:52:10;12.43;;;6.57;;
73650;SDS011;61944;52.538;6.108;2024-02-26T08:54:35;11.40;;;5.97;;
73650;SDS011;61944;52.538;6.108;2024-02-26T08:57:01;11.70;;;5.82;;
73650;SDS011;61944;52.538;6.108;2024-02-26T08:59:26;9.68;;;5.97;;
73650;SDS011;61944;52.538;6.108;2024-02-26T09:01:51;12.70;;;7.35;;
73650;SDS011;61944;52.538;6.108;2024-02-26T09:04:17;9.85;;;5.32;;
73650;SDS011;61944;52.538;6.108;2024-02-26T09:06:42;7.97;;;5.93;;
73650;SDS011;61944;52.538;6.108;2024-02-26T09:09:07;9.10;;;5.50;;
73650;SDS011;61944;52.538;6.108;2024-02-26T09:11:33;11.18;;;7.05;;
73650;SDS011;61944;52.538;6.108;2024-02-26T09:13:58;10.68;;;6.00;;
73650;SDS011;61944;52.538;6.108;2024-02-26T09:16:30;14.65;;;6.68;;
73650;SDS011;61944;52.538;6.108;2024-02-26T09:18:56;12.30;;;6.93;;
73650;SDS011;61944;52.538;6.108;2024-02-26T09:21:21;11.77;;;6.10;;
73650;SDS011;61944;52.538;6.108;2024-02-26T09:23:51;11.50;;;5.82;;
73650;SDS011;61944;52.538;6.108;2024-02-26T09:26:17;8.63;;;4.97;;
73650;SDS011;61944;52.538;6.108;2024-02-26T09:28:43;11.75;;;5.22;;
73650;SDS011;61944;52.538;6.108;2024-02-26T09:31:09;10.07;;;5.20;;
73650;SDS011;61944;52.538;6.108;2024-02-26T09:33:35;8.93;;;5.78;;
73650;SDS011;61944;52.538;6.108;2024-02-26T09:36:00;8.95;;;5.13;;
73650;SDS011;61944;52.538;6.108;2024-02-26T09:38:26;8.98;;;5.20;;
73650;SDS011;61944;52.538;6.108;2024-02-26T09:40:52;8.40;;;5.10;;
73650;SDS011;61944;52.538;6.108;2024-02-26T09:43:18;10.70;;;5.82;;
73650;SDS011;61944;52.538;6.108;2024-02-26T09:45:52;8.40;;;5.45;;
73650;SDS011;61944;52.538;6.108;2024-02-26T09:48:18;9.63;;;5.55;;
73650;SDS011;61944;52.538;6.108;2024-02-26T09:50:44;9.68;;;6.05;;
73650;SDS011;61944;52.538;6.108;2024-02-26T09:53:10;9.05;;;5.78;;
73650;SDS011;61944;52.538;6.108;2024-02-26T09:55:37;10.13;;;6.30;;
73650;SDS011;61944;52.538;6.108;2024-02-26T09:58:03;10.07;;;6.10;;
73650;SDS011;61944;52.538;6.108;2024-02-26T10:00:31;11.25;;;6.25;;
73650;SDS011;61944;52.538;6.108;2024-02-26T10:03:02;9.75;;;6.05;;
73650;SDS011;61944;52.538;6.108;2024-02-26T10:05:29;9.82;;;5.50;;
73650;SDS011;61944;52.538;6.108;2024-02-26T10:07:56;11.73;;;6.47;;
73650;SDS011;61944;52.538;6.108;2024-02-26T10:10:22;11.75;;;7.22;;
73650;SDS011;61944;52.538;6.108;2024-02-26T10:12:48;10.98;;;6.05;;
73650;SDS011;61944;52.538;6.108;2024-02-26T10:15:14;8.82;;;5.80;;
73650;SDS011;61944;52.538;6.108;2024-02-26T10:17:39;8.70;;;5.18;;
73650;SDS011;61944;52.538;6.108;2024-02-26T10:22:38;10.20;;;5.97;;
73650;SDS011;61944;52.538;6.108;2024-02-26T10:25:03;9.13;;;5.43;;
73650;SDS011;61944;52.538;6.108;2024-02-26T10:27:29;11.15;;;6.10;;
73650;SDS011;61944;52.538;6.108;2024-02-26T10:29:56;11.00;;;7.00;;
73650;SDS011;61944;52.538;6.108;2024-02-26T10:32:22;9.95;;;5.40;;
73650;SDS011;61944;52.538;6.108;2024-02-26T10:34:47;10.93;;;5.95;;
73650;SDS011;61944;52.538;6.108;2024-02-26T10:37:13;11.68;;;6.93;;
73650;SDS011;61944;52.538;6.108;2024-02-26T10:39:38;9.35;;;5.57;;
73650;SDS011;61944;52.538;6.108;2024-02-26T10:42:04;10.60;;;5.57;;
73650;SDS011;61944;52.538;6.108;2024-02-26T10:44:34;11.77;;;6.78;;
73650;SDS011;61944;52.538;6.108;2024-02-26T10:47:00;9.05;;;5.40;;
73650;SDS011;61944;52.538;6.108;2024-02-26T10:49:25;11.45;;;6.43;;
73650;SDS011;61944;52.538;6.108;2024-02-26T10:51:52;8.88;;;5.68;;
73650;SDS011;61944;52.538;6.108;2024-02-26T10:54:21;9.25;;;5.60;;
73650;SDS011;61944;52.538;6.108;2024-02-26T10:56:50;8.90;;;5.45;;
73650;SDS011;61944;52.538;6.108;2024-02-26T10:59:16;8.82;;;4.70;;
73650;SDS011;61944;52.538;6.108;2024-02-26T11:01:47;8.27;;;5.53;;
73650;SDS011;61944;52.538;6.108;2024-02-26T11:04:13;7.38;;;5.15;;
73650;SDS011;61944;52.538;6.108;2024-02-26T11:06:40;8.38;;;5.60;;
73650;SDS011;61944;52.538;6.108;2024-02-26T11:09:06;8.95;;;5.80;;
73650;SDS011;61944;52.538;6.108;2024-02-26T11:11:38;8.55;;;5.25;;
73650;SDS011;61944;52.538;6.108;2024-02-26T11:14:05;8.95;;;4.60;;
73650;SDS011;61944;52.538;6.108;2024-02-26T11:16:33;7.97;;;4.85;;
73650;SDS011;61944;52.538;6.108;2024-02-26T11:19:00;8.57;;;5.63;;
73650;SDS011;61944;52.538;6.108;2024-02-26T11:21:26;8.45;;;5.00;;
73650;SDS011;61944;52.538;6.108;2024-02-26T11:23:56;8.98;;;5.30;;
73650;SDS011;61944;52.538;6.108;2024-02-26T11:26:22;8.30;;;4.85;;
73650;SDS011;61944;52.538;6.108;2024-02-26T11:28:49;11.38;;;5.22;;
73650;SDS011;61944;52.538;6.108;2024-02-26T11:31:16;11.75;;;5.95;;
73650;SDS011;61944;52.538;6.108;2024-02-26T11:33:43;8.93;;;4.70;;
73650;SDS011;61944;52.538;6.108;2024-02-26T11:36:09;7.93;;;5.10;;
73650;SDS011;61944;52.538;6.108;2024-02-26T11:38:34;9.43;;;5.55;;
73650;SDS011;61944;52.538;6.108;2024-02-26T11:41:01;6.85;;;4.53;;
73650;SDS011;61944;52.538;6.108;2024-02-26T11:46:25;9.48;;;5.38;;
73650;SDS011;61944;52.538;6.108;2024-02-26T11:48:51;8.77;;;5.60;;
73650;SDS011;61944;52.538;6.108;2024-02-26T11:51:18;9.48;;;4.78;;
73650;SDS011;61944;52.538;6.108;2024-02-26T11:53:50;12.57;;;5.68;;
73650;SDS011;61944;52.538;6.108;2024-02-26T11:58:58;14.35;;;7.07;;
73650;SDS011;61944;52.538;6.108;2024-02-26T12:01:38;12.07;;;6.20;;
73650;SDS011;61944;52.538;6.108;2024-02-26T12:04:04;9.93;;;5.93;;
73650;SDS011;61944;52.538;6.108;2024-02-26T12:06:48;9.05;;;6.03;;
73650;SDS011;61944;52.538;6.108;2024-02-26T12:12:02;10.70;;;5.68;;
73650;SDS011;61944;52.538;6.108;2024-02-26T12:14:37;9.50;;;5.10;;
73650;SDS011;61944;52.538;6.108;2024-02-26T12:17:03;8.25;;;5.30;;
73650;SDS011;61944;52.538;6.108;2024-02-26T12:19:32;9.38;;;5.50;;
73650;SDS011;61944;52.538;6.108;2024-02-26T12:21:59;9.48;;;4.88;;
73650;SDS011;61944;52.538;6.108;2024-02-26T12:24:24;8.48;;;5.57;;
73650;SDS011;61944;52.538;6.108;2024-02-26T12:26:50;10.77;;;6.35;;
73650;SDS011;61944;52.538;6.108;2024-02-26T12:29:15;11.00;;;6.05;;
73650;SDS011;61944;52.538;6.108;2024-02-26T12:31:41;9.45;;;5.43;;
73650;SDS011;61944;52.538;6.108;2024-02-26T12:34:07;10.07;;;6.35;;
73650;SDS011;61944;52.538;6.108;2024-02-26T12:36:34;8.48;;;5.75;;
73650;SDS011;61944;52.538;6.108;2024-02-26T12:39:01;11.95;;;6.65;;
73650;SDS011;61944;52.538;6.108;2024-02-26T12:41:27;12.10;;;5.50;;
73650;SDS011;61944;52.538;6.108;2024-02-26T12:43:55;8.57;;;5.20;;
73650;SDS011;61944;52.538;6.108;2024-02-26T12:46:21;12.50;;;6.35;;
73650;SDS011;61944;52.538;6.108;2024-02-26T12:48:46;10.35;;;5.68;;
73650;SDS011;61944;52.538;6.108;2024-02-26T12:51:12;11.15;;;6.05;;
73650;SDS011;61944;52.538;6.108;2024-02-26T12:53:41;11.20;;;6.22;;
73650;SDS011;61944;52.538;6.108;2024-02-26T12:56:09;13.20;;;6.88;;
73650;SDS011;61944;52.538;6.108;2024-02-26T12:58:36;8.10;;;5.72;;
73650;SDS011;61944;52.538;6.108;2024-02-26T13:01:04;10.52;;;6.10;;
73650;SDS011;61944;52.538;6.108;2024-02-26T13:03:30;7.07;;;4.50;;
73650;SDS011;61944;52.538;6.108;2024-02-26T13:05:56;8.27;;;5.18;;
73650;SDS011;61944;52.538;6.108;2024-02-26T13:08:22;7.72;;;4.85;;
73650;SDS011;61944;52.538;6.108;2024-02-26T13:10:49;9.95;;;5.15;;
73650;SDS011;61944;52.538;6.108;2024-02-26T13:13:16;8.15;;;4.78;;
73650;SDS011;61944;52.538;6.108;2024-02-26T13:15:42;7.60;;;4.38;;
73650;SDS011;61944;52.538;6.108;2024-02-26T13:18:12;8.63;;;5.32;;
73650;SDS011;61944;52.538;6.108;2024-02-26T13:20:38;11.55;;;4.57;;
73650;SDS011;61944;52.538;6.108;2024-02-26T13:23:07;12.50;;;5.20;;
73650;SDS011;61944;52.538;6.108;2024-02-26T13:25:36;6.78;;;3.55;;
73650;SDS011;61944;52.538;6.108;2024-02-26T13:28:13;6.28;;;4.03;;
73650;SDS011;61944;52.538;6.108;2024-02-26T13:30:41;6.88;;;4.18;;
73650;SDS011;61944;52.538;6.108;2024-02-26T13:33:10;9.73;;;4.55;;
73650;SDS011;61944;52.538;6.108;2024-02-26T13:35:36;7.82;;;4.20;;
73650;SDS011;61944;52.538;6.108;2024-02-26T13:38:03;6.53;;;4.03;;
73650;SDS011;61944;52.538;6.108;2024-02-26T13:40:30;6.22;;;4.35;;
73650;SDS011;61944;52.538;6.108;2024-02-26T13:42:55;8.73;;;4.05;;
73650;SDS011;61944;52.538;6.108;2024-02-26T13:45:20;7.78;;;4.20;;
73650;SDS011;61944;52.538;6.108;2024-02-26T13:47:46;7.13;;;4.53;;
73650;SDS011;61944;52.538;6.108;2024-02-26T13:50:11;7.65;;;3.85;;
73650;SDS011;61944;52.538;6.108;2024-02-26T13:52:36;6.15;;;4.25;;
73650;SDS011;61944;52.538;6.108;2024-02-26T13:55:02;4.88;;;3.13;;
73650;SDS011;61944;52.538;6.108;2024-02-26T13:57:28;8.02;;;4.70;;
73650;SDS011;61944;52.538;6.108;2024-02-26T13:59:54;7.10;;;4.07;;
73650;SDS011;61944;52.538;6.108;2024-02-26T14:02:19;6.95;;;4.05;;
73650;SDS011;61944;52.538;6.108;2024-02-26T14:04:45;8.68;;;4.18;;
73650;SDS011;61944;52.538;6.108;2024-02-26T14:07:11;6.88;;;3.80;;
73650;SDS011;61944;52.538;6.108;2024-02-26T14:09:37;7.47;;;5.03;;
73650;SDS011;61944;52.538;6.108;2024-02-26T14:12:02;8.55;;;4.15;;
73650;SDS011;61944;52.538;6.108;2024-02-26T14:14:28;8.25;;;4.78;;
73650;SDS011;61944;52.538;6.108;2024-02-26T14:16:54;6.65;;;4.43;;
73650;SDS011;61944;52.538;6.108;2024-02-26T14:19:19;6.07;;;4.50;;
73650;SDS011;61944;52.538;6.108;2024-02-26T14:21:45;7.65;;;4.53;;
73650;SDS011;61944;52.538;6.108;2024-02-26T14:24:10;8.15;;;4.85;;
73650;SDS011;61944;52.538;6.108;2024-02-26T14:26:35;12.77;;;5.22;;
73650;SDS011;61944;52.538;6.108;2024-02-26T14:29:01;11.05;;;4.85;;
73650;SDS011;61944;52.538;6.108;2024-02-26T14:31:26;5.25;;;4.10;;
73650;SDS011;61944;52.538;6.108;2024-02-26T14:33:51;9.88;;;4.90;;
73650;SDS011;61944;52.538;6.108;2024-02-26T14:36:19;11.07;;;5.50;;
73650;SDS011;61944;52.538;6.108;2024-02-26T14:38:45;9.27;;;5.13;;
73650;SDS011;61944;52.538;6.108;2024-02-26T14:41:11;7.25;;;5.18;;
73650;SDS011;61944;52.538;6.108;2024-02-26T14:43:36;11.73;;;5.35;;
73650;SDS011;61944;52.538;6.108;2024-02-26T14:46:02;6.82;;;4.05;;
73650;SDS011;61944;52.538;6.108;2024-02-26T14:48:27;8.55;;;4.35;;
73650;SDS011;61944;52.538;6.108;2024-02-26T14:50:54;8.85;;;5.00;;
73650;SDS011;61944;52.538;6.108;2024-02-26T14:55:52;7.30;;;4.70;;
73650;SDS011;61944;52.538;6.108;2024-02-26T14:58:17;9.23;;;5.63;;
73650;SDS011;61944;52.538;6.108;2024-02-26T15:00:43;8.02;;;4.60;;
73650;SDS011;61944;52.538;6.108;2024-02-26T15:03:08;8.90;;;5.20;;
73650;SDS011;61944;52.538;6.108;2024-02-26T15:05:34;8.13;;;4.93;;
73650;SDS011;61944;52.538;6.108;2024-02-26T15:07:59;8.95;;;5.03;;
73650;SDS011;61944;52.538;6.108;2024-02-26T15:10:25;8.20;;;4.80;;
73650;SDS011;61944;52.538;6.108;2024-02-26T15:12:51;11.77;;;5.65;;
73650;SDS011;61944;52.538;6.108;2024-02-26T15:15:20;9.93;;;5.57;;
73650;SDS011;61944;52.538;6.108;2024-02-26T15:17:48;10.00;;;5.55;;
73650;SDS011;61944;52.538;6.108;2024-02-26T15:20:14;10.02;;;6.05;;
73650;SDS011;61944;52.538;6.108;2024-02-26T15:22:40;10.80;;;5.20;;
73650;SDS011;61944;52.538;6.108;2024-02-26T15:25:06;9.65;;;6.50;;
73650;SDS011;61944;52.538;6.108;2024-02-26T15:27:32;8.88;;;5.47;;
73650;SDS011;61944;52.538;6.108;2024-02-26T15:29:57;9.10;;;5.82;;
73650;SDS011;61944;52.538;6.108;2024-02-26T15:32:24;8.00;;;5.07;;
73650;SDS011;61944;52.538;6.108;2024-02-26T15:34:49;9.77;;;6.18;;
73650;SDS011;61944;52.538;6.108;2024-02-26T15:37:15;11.93;;;5.55;;
73650;SDS011;61944;52.538;6.108;2024-02-26T15:39:41;7.95;;;5.28;;
73650;SDS011;61944;52.538;6.108;2024-02-26T15:42:06;10.32;;;6.10;;
73650;SDS011;61944;52.538;6.108;2024-02-26T15:44:32;10.02;;;6.40;;
73650;SDS011;61944;52.538;6.108;2024-02-26T15:46:57;12.57;;;6.15;;
73650;SDS011;61944;52.538;6.108;2024-02-26T15:49:22;9.90;;;5.55;;
73650;SDS011;61944;52.538;6.108;2024-02-26T15:51:48;9.50;;;5.70;;
73650;SDS011;61944;52.538;6.108;2024-02-26T15:54:14;12.27;;;6.30;;
73650;SDS011;61944;52.538;6.108;2024-02-26T15:56:40;13.50;;;6.57;;
73650;SDS011;61944;52.538;6.108;2024-02-26T15:59:06;15.85;;;6.60;;
73650;SDS011;61944;52.538;6.108;2024-02-26T16:01:31;13.48;;;7.00;;
73650;SDS011;61944;52.538;6.108;2024-02-26T16:03:56;11.07;;;6.13;;
73650;SDS011;61944;52.538;6.108;2024-02-26T16:06:29;13.82;;;6.15;;
73650;SDS011;61944;52.538;6.108;2024-02-26T16:08:58;10.55;;;6.28;;
73650;SDS011;61944;52.538;6.108;2024-02-26T16:11:24;11.00;;;6.82;;
73650;SDS011;61944;52.538;6.108;2024-02-26T16:13:50;11.43;;;6.32;;
73650;SDS011;61944;52.538;6.108;2024-02-26T16:16:23;11.05;;;6.53;;
73650;SDS011;61944;52.538;6.108;2024-02-26T16:18:54;14.50;;;7.78;;
73650;SDS011;61944;52.538;6.108;2024-02-26T16:21:30;15.07;;;7.93;;
73650;SDS011;61944;52.538;6.108;2024-02-26T16:23:55;11.65;;;6.70;;
73650;SDS011;61944;52.538;6.108;2024-02-26T16:26:20;13.18;;;6.30;;
73650;SDS011;61944;52.538;6.108;2024-02-26T16:28:46;14.90;;;8.02;;
73650;SDS011;61944;52.538;6.108;2024-02-26T16:31:11;15.02;;;7.20;;
73650;SDS011;61944;52.538;6.108;2024-02-26T16:33:36;13.77;;;7.85;;
73650;SDS011;61944;52.538;6.108;2024-02-26T16:36:02;11.15;;;6.20;;
73650;SDS011;61944;52.538;6.108;2024-02-26T16:38:30;16.10;;;7.40;;
73650;SDS011;61944;52.538;6.108;2024-02-26T16:40:55;15.18;;;7.53;;
73650;SDS011;61944;52.538;6.108;2024-02-26T16:43:21;13.20;;;7.15;;
73650;SDS011;61944;52.538;6.108;2024-02-26T16:45:46;13.25;;;7.55;;
73650;SDS011;61944;52.538;6.108;2024-02-26T16:48:12;18.60;;;8.27;;
73650;SDS011;61944;52.538;6.108;2024-02-26T16:50:38;12.52;;;6.85;;
73650;SDS011;61944;52.538;6.108;2024-02-26T16:53:03;9.85;;;5.53;;
73650;SDS011;61944;52.538;6.108;2024-02-26T16:55:28;10.13;;;6.75;;
73650;SDS011;61944;52.538;6.108;2024-02-26T16:57:54;11.73;;;6.50;;
73650;SDS011;61944;52.538;6.108;2024-02-26T17:00:21;9.75;;;5.90;;
73650;SDS011;61944;52.538;6.108;2024-02-26T17:02:46;11.35;;;6.30;;
73650;SDS011;61944;52.538;6.108;2024-02-26T17:05:13;12.48;;;7.40;;
73650;SDS011;61944;52.538;6.108;2024-02-26T17:07:40;11.50;;;6.38;;
73650;SDS011;61944;52.538;6.108;2024-02-26T17:10:07;12.10;;;6.45;;
73650;SDS011;61944;52.538;6.108;2024-02-26T17:12:33;11.45;;;5.75;;
73650;SDS011;61944;52.538;6.108;2024-02-26T17:14:58;11.70;;;6.50;;
73650;SDS011;61944;52.538;6.108;2024-02-26T17:17:23;14.20;;;7.50;;
73650;SDS011;61944;52.538;6.108;2024-02-26T17:19:49;10.05;;;6.22;;
73650;SDS011;61944;52.538;6.108;2024-02-26T17:22:14;11.80;;;5.93;;
73650;SDS011;61944;52.538;6.108;2024-02-26T17:24:40;13.35;;;6.40;;
73650;SDS011;61944;52.538;6.108;2024-02-26T17:27:05;15.00;;;7.43;;
73650;SDS011;61944;52.538;6.108;2024-02-26T17:29:31;11.07;;;6.47;;
73650;SDS011;61944;52.538;6.108;2024-02-26T17:31:56;13.60;;;7.68;;
73650;SDS011;61944;52.538;6.108;2024-02-26T17:34:21;10.82;;;6.90;;
73650;SDS011;61944;52.538;6.108;2024-02-26T17:36:47;14.45;;;8.18;;
73650;SDS011;61944;52.538;6.108;2024-02-26T17:39:13;16.60;;;6.50;;
73650;SDS011;61944;52.538;6.108;2024-02-26T17:41:38;11.52;;;6.45;;
73650;SDS011;61944;52.538;6.108;2024-02-26T17:44:04;13.48;;;7.28;;
73650;SDS011;61944;52.538;6.108;2024-02-26T17:46:30;13.27;;;6.80;;
73650;SDS011;61944;52.538;6.108;2024-02-26T17:48:55;18.40;;;7.25;;
73650;SDS011;61944;52.538;6.108;2024-02-26T17:51:21;12.80;;;7.63;;
73650;SDS011;61944;52.538;6.108;2024-02-26T17:53:47;14.00;;;6.93;;
73650;SDS011;61944;52.538;6.108;2024-02-26T17:56:12;12.80;;;7.05;;
73650;SDS011;61944;52.538;6.108;2024-02-26T17:58:38;12.57;;;7.25;;
73650;SDS011;61944;52.538;6.108;2024-02-26T18:01:06;15.15;;;6.95;;
73650;SDS011;61944;52.538;6.108;2024-02-26T18:03:32;14.93;;;8.88;;
73650;SDS011;61944;52.538;6.108;2024-02-26T18:05:57;20.92;;;11.88;;
73650;SDS011;61944;52.538;6.108;2024-02-26T18:08:24;16.35;;;9.75;;
73650;SDS011;61944;52.538;6.108;2024-02-26T18:10:50;12.23;;;7.47;;
73650;SDS011;61944;52.538;6.108;2024-02-26T18:13:15;12.85;;;7.38;;
73650;SDS011;61944;52.538;6.108;2024-02-26T18:15:43;17.10;;;9.50;;
73650;SDS011;61944;52.538;6.108;2024-02-26T18:18:09;15.77;;;9.57;;
73650;SDS011;61944;52.538;6.108;2024-02-26T18:20:34;21.65;;;10.88;;
73650;SDS011;61944;52.538;6.108;2024-02-26T18:23:00;24.70;;;14.02;;
73650;SDS011;61944;52.538;6.108;2024-02-26T18:25:25;20.98;;;11.82;;
73650;SDS011;61944;52.538;6.108;2024-02-26T18:27:51;16.15;;;9.48;;
73650;SDS011;61944;52.538;6.108;2024-02-26T18:30:17;18.13;;;10.73;;
73650;SDS011;61944;52.538;6.108;2024-02-26T18:32:43;19.27;;;10.38;;
73650;SDS011;61944;52.538;6.108;2024-02-26T18:35:11;20.45;;;10.40;;
73650;SDS011;61944;52.538;6.108;2024-02-26T18:37:37;23.17;;;15.25;;
73650;SDS011;61944;52.538;6.108;2024-02-26T18:40:02;14.18;;;8.98;;
73650;SDS011;61944;52.538;6.108;2024-02-26T18:42:32;14.25;;;9.35;;
73650;SDS011;61944;52.538;6.108;2024-02-26T18:44:58;13.15;;;7.88;;
73650;SDS011;61944;52.538;6.108;2024-02-26T18:47:24;12.25;;;7.63;;
73650;SDS011;61944;52.538;6.108;2024-02-26T18:49:50;15.00;;;8.43;;
73650;SDS011;61944;52.538;6.108;2024-02-26T18:52:16;15.50;;;8.95;;
73650;SDS011;61944;52.538;6.108;2024-02-26T18:54:42;14.07;;;7.90;;
73650;SDS011;61944;52.538;6.108;2024-02-26T18:57:08;14.23;;;8.68;;
73650;SDS011;61944;52.538;6.108;2024-02-26T18:59:34;18.85;;;10.88;;
73650;SDS011;61944;52.538;6.108;2024-02-26T19:02:00;13.50;;;9.02;;
73650;SDS011;61944;52.538;6.108;2024-02-26T19:04:26;15.93;;;8.75;;
73650;SDS011;61944;52.538;6.108;2024-02-26T19:06:52;16.55;;;9.85;;
73650;SDS011;61944;52.538;6.108;2024-02-26T19:09:18;17.67;;;9.57;;
73650;SDS011;61944;52.538;6.108;2024-02-26T19:11:45;15.52;;;8.43;;
73650;SDS011;61944;52.538;6.108;2024-02-26T19:14:14;19.45;;;11.77;;
73650;SDS011;61944;52.538;6.108;2024-02-26T19:16:42;20.00;;;11.30;;
73650;SDS011;61944;52.538;6.108;2024-02-26T19:19:08;17.25;;;9.07;;
73650;SDS011;61944;52.538;6.108;2024-02-26T19:21:33;17.23;;;9.55;;
73650;SDS011;61944;52.538;6.108;2024-02-26T19:23:59;20.92;;;9.32;;
73650;SDS011;61944;52.538;6.108;2024-02-26T19:26:25;17.75;;;9.23;;
73650;SDS011;61944;52.538;6.108;2024-02-26T19:28:50;16.48;;;10.52;;
73650;SDS011;61944;52.538;6.108;2024-02-26T19:31:15;13.95;;;8.10;;
73650;SDS011;61944;52.538;6.108;2024-02-26T19:33:41;16.30;;;9.95;;
73650;SDS011;61944;52.538;6.108;2024-02-26T19:36:06;17.30;;;9.73;;
73650;SDS011;61944;52.538;6.108;2024-02-26T19:38:32;14.48;;;9.45;;
73650;SDS011;61944;52.538;6.108;2024-02-26T19:40:57;16.50;;;8.43;;
73650;SDS011;61944;52.538;6.108;2024-02-26T19:43:23;17.92;;;9.27;;
73650;SDS011;61944;52.538;6.108;2024-02-26T19:45:48;13.77;;;8.93;;
73650;SDS011;61944;52.538;6.108;2024-02-26T19:48:14;17.20;;;10.27;;
73650;SDS011;61944;52.538;6.108;2024-02-26T19:50:39;14.80;;;8.90;;
73650;SDS011;61944;52.538;6.108;2024-02-26T19:53:06;18.17;;;9.07;;
73650;SDS011;61944;52.538;6.108;2024-02-26T19:55:31;14.05;;;8.43;;
73650;SDS011;61944;52.538;6.108;2024-02-26T19:57:56;16.75;;;9.13;;
73650;SDS011;61944;52.538;6.108;2024-02-26T20:00:22;16.38;;;8.20;;
73650;SDS011;61944;52.538;6.108;2024-02-26T20:02:48;16.40;;;8.65;;
73650;SDS011;61944;52.538;6.108;2024-02-26T20:05:13;15.43;;;8.30;;
73650;SDS011;61944;52.538;6.108;2024-02-26T20:07:39;13.65;;;8.00;;
73650;SDS011;61944;52.538;6.108;2024-02-26T20:10:04;12.85;;;8.40;;
73650;SDS011;61944;52.538;6.108;2024-02-26T20:12:30;18.70;;;8.93;;
73650;SDS011;61944;52.538;6.108;2024-02-26T20:14:56;15.68;;;8.48;;
73650;SDS011;61944;52.538;6.108;2024-02-26T20:17:21;17.73;;;9.57;;
73650;SDS011;61944;52.538;6.108;2024-02-26T20:19:46;15.98;;;9.35;;
73650;SDS011;61944;52.538;6.108;2024-02-26T20:22:12;15.52;;;8.73;;
73650;SDS011;61944;52.538;6.108;2024-02-26T20:24:38;14.95;;;8.50;;
73650;SDS011;61944;52.538;6.108;2024-02-26T20:27:05;14.95;;;8.13;;
73650;SDS011;61944;52.538;6.108;2024-02-26T20:29:31;17.05;;;9.57;;
73650;SDS011;61944;52.538;6.108;2024-02-26T20:31:58;17.15;;;9.45;;